sensor_id;sensor_type;location;lat;lon;timestamp;temperature;humidity
8820;DHT22;4446;50.876;4.736;2022-11-20T00:01:43;3.10;99.90
8820;DHT22;4446;50.876;4.736;2022-11-20T00:04:10;3.10;99.90
8820;DHT22;4446;50.876;4.736;2022-11-20T00:06:37;3.10;99.90
8820;DHT22;4446;50.876;4.736;2022-11-20T00:09:05;3.10;99.90
8820;DHT22;4446;50.876;4.736;2022-11-20T00:11:32;3.10;99.90
8820;DHT22;4446;50.876;4.736;2022-11-20T00:14:00;3.00;99.90
8820;DHT22;4446;50.876;4.736;2022-11-20T00:16:30;3.00;99.90
8820;DHT22;4446;50.876;4.736;2022-11-20T00:18:59;3.00;99.90
8820;DHT22;4446;50.876;4.736;2022-11-20T00:21:27;3.00;99.90
8820;DHT22;4446;50.876;4.736;2022-11-20T00:23:57;3.00;99.90
8820;DHT22;4446;50.876;4.736;2022-11-20T00:26:25;3.10;99.90
8820;DHT22;4446;50.876;4.736;2022-11-20T00:28:54;3.20;99.90
8820;DHT22;4446;50.876;4.736;2022-11-20T00:31:21;3.20;99.90
8820;DHT22;4446;50.876;4.736;2022-11-20T00:33:49;3.20;99.90
8820;DHT22;4446;50.876;4.736;2022-11-20T00:36:18;3.10;99.90
8820;DHT22;4446;50.876;4.736;2022-11-20T00:38:46;3.20;99.90
8820;DHT22;4446;50.876;4.736;2022-11-20T00:41:14;3.10;99.90
8820;DHT22;4446;50.876;4.736;2022-11-20T00:43:42;3.10;99.90
8820;DHT22;4446;50.876;4.736;2022-11-20T00:46:13;3.10;99.90
8820;DHT22;4446;50.876;4.736;2022-11-20T00:48:40;3.10;99.90
8820;DHT22;4446;50.876;4.736;2022-11-20T00:51:07;3.10;99.90
8820;DHT22;4446;50.876;4.736;2022-11-20T00:53:36;3.10;99.90
8820;DHT22;4446;50.876;4.736;2022-11-20T00:56:04;3.10;99.90
8820;DHT22;4446;50.876;4.736;2022-11-20T00:58:33;3.00;99.90
8820;DHT22;4446;50.876;4.736;2022-11-20T01:01:01;3.00;99.90
8820;DHT22;4446;50.876;4.736;2022-11-20T01:03:31;3.00;99.90
8820;DHT22;4446;50.876;4.736;2022-11-20T01:06:00;3.00;99.90
8820;DHT22;4446;50.876;4.736;2022-11-20T01:08:29;3.00;99.90
8820;DHT22;4446;50.876;4.736;2022-11-20T01:11:01;3.00;99.90
8820;DHT22;4446;50.876;4.736;2022-11-20T01:13:29;3.00;99.90
8820;DHT22;4446;50.876;4.736;2022-11-20T01:16:07;3.10;99.90
8820;DHT22;4446;50.876;4.736;2022-11-20T01:18:35;3.10;99.90
8820;DHT22;4446;50.876;4.736;2022-11-20T01:21:03;3.10;99.90
8820;DHT22;4446;50.876;4.736;2022-11-20T01:23:32;3.10;99.90
8820;DHT22;4446;50.876;4.736;2022-11-20T01:26:01;3.10;99.90
8820;DHT22;4446;50.876;4.736;2022-11-20T01:28:29;3.10;99.90
8820;DHT22;4446;50.876;4.736;2022-11-20T01:30:56;3.10;99.90
8820;DHT22;4446;50.876;4.736;2022-11-20T01:33:24;3.10;99.90
8820;DHT22;4446;50.876;4.736;2022-11-20T01:35:51;3.10;99.90
8820;DHT22;4446;50.876;4.736;2022-11-20T01:38:19;3.10;99.90
8820;DHT22;4446;50.876;4.736;2022-11-20T01:40:54;3.10;99.90
8820;DHT22;4446;50.876;4.736;2022-11-20T01:43:24;3.10;99.90
8820;DHT22;4446;50.876;4.736;2022-11-20T01:46:08;3.20;99.90
8820;DHT22;4446;50.876;4.736;2022-11-20T01:48:43;3.20;99.90
8820;DHT22;4446;50.876;4.736;2022-11-20T01:51:17;3.20;99.90
8820;DHT22;4446;50.876;4.736;2022-11-20T01:53:46;3.10;99.90
8820;DHT22;4446;50.876;4.736;2022-11-20T01:56:14;3.20;99.90
8820;DHT22;4446;50.876;4.736;2022-11-20T01:58:49;3.20;99.90
8820;DHT22;4446;50.876;4.736;2022-11-20T02:01:19;3.20;99.90
8820;DHT22;4446;50.876;4.736;2022-11-20T02:03:47;3.20;99.90
8820;DHT22;4446;50.876;4.736;2022-11-20T02:06:18;3.20;99.90
8820;DHT22;4446;50.876;4.736;2022-11-20T02:08:46;3.20;99.90
8820;DHT22;4446;50.876;4.736;2022-11-20T02:11:13;3.20;99.90
8820;DHT22;4446;50.876;4.736;2022-11-20T02:13:40;3.20;99.90
8820;DHT22;4446;50.876;4.736;2022-11-20T02:16:21;3.20;99.90
8820;DHT22;4446;50.876;4.736;2022-11-20T02:18:49;3.30;99.90
8820;DHT22;4446;50.876;4.736;2022-11-20T02:21:30;3.30;99.90
8820;DHT22;4446;50.876;4.736;2022-11-20T02:24:12;3.20;99.90
8820;DHT22;4446;50.876;4.736;2022-11-20T02:26:46;3.20;99.90
8820;DHT22;4446;50.876;4.736;2022-11-20T02:29:17;3.30;99.90
8820;DHT22;4446;50.876;4.736;2022-11-20T02:31:46;3.20;99.90
8820;DHT22;4446;50.876;4.736;2022-11-20T02:34:13;3.20;99.90
8820;DHT22;4446;50.876;4.736;2022-11-20T02:36:41;3.20;99.90
8820;DHT22;4446;50.876;4.736;2022-11-20T02:39:11;3.20;99.90
8820;DHT22;4446;50.876;4.736;2022-11-20T02:41:42;3.30;99.90
8820;DHT22;4446;50.876;4.736;2022-11-20T02:44:09;3.30;99.90
8820;DHT22;4446;50.876;4.736;2022-11-20T02:46:36;3.30;99.90
8820;DHT22;4446;50.876;4.736;2022-11-20T02:49:04;3.30;99.90
8820;DHT22;4446;50.876;4.736;2022-11-20T02:51:32;3.30;99.90
8820;DHT22;4446;50.876;4.736;2022-11-20T02:53:59;3.30;99.90
8820;DHT22;4446;50.876;4.736;2022-11-20T02:56:27;3.30;99.90
8820;DHT22;4446;50.876;4.736;2022-11-20T02:58:54;3.40;99.90
8820;DHT22;4446;50.876;4.736;2022-11-20T03:01:22;3.30;99.90
8820;DHT22;4446;50.876;4.736;2022-11-20T03:03:49;3.40;99.90
8820;DHT22;4446;50.876;4.736;2022-11-20T03:06:17;3.30;99.90
8820;DHT22;4446;50.876;4.736;2022-11-20T03:08:44;3.40;99.90
8820;DHT22;4446;50.876;4.736;2022-11-20T03:11:12;3.30;99.90
8820;DHT22;4446;50.876;4.736;2022-11-20T03:13:40;3.40;99.90
8820;DHT22;4446;50.876;4.736;2022-11-20T03:16:09;3.30;99.90
8820;DHT22;4446;50.876;4.736;2022-11-20T03:18:37;3.30;99.90
8820;DHT22;4446;50.876;4.736;2022-11-20T03:21:05;3.40;99.90
8820;DHT22;4446;50.876;4.736;2022-11-20T03:23:32;3.40;99.90
8820;DHT22;4446;50.876;4.736;2022-11-20T03:26:18;3.40;99.90
8820;DHT22;4446;50.876;4.736;2022-11-20T03:28:48;3.30;99.90
8820;DHT22;4446;50.876;4.736;2022-11-20T03:31:19;3.30;99.90
8820;DHT22;4446;50.876;4.736;2022-11-20T03:33:46;3.30;99.90
8820;DHT22;4446;50.876;4.736;2022-11-20T03:36:14;3.30;99.90
8820;DHT22;4446;50.876;4.736;2022-11-20T03:38:42;3.30;99.90
8820;DHT22;4446;50.876;4.736;2022-11-20T03:41:10;3.30;99.90
8820;DHT22;4446;50.876;4.736;2022-11-20T03:43:39;3.30;99.90
8820;DHT22;4446;50.876;4.736;2022-11-20T03:46:08;3.30;99.90
8820;DHT22;4446;50.876;4.736;2022-11-20T03:48:35;3.40;99.90
8820;DHT22;4446;50.876;4.736;2022-11-20T03:51:12;3.30;99.90
8820;DHT22;4446;50.876;4.736;2022-11-20T03:53:40;3.30;99.90
8820;DHT22;4446;50.876;4.736;2022-11-20T03:56:08;3.40;99.90
8820;DHT22;4446;50.876;4.736;2022-11-20T03:58:37;3.40;99.90
8820;DHT22;4446;50.876;4.736;2022-11-20T04:01:07;3.40;99.90
8820;DHT22;4446;50.876;4.736;2022-11-20T04:03:35;3.40;99.90
8820;DHT22;4446;50.876;4.736;2022-11-20T04:06:04;3.50;99.90
8820;DHT22;4446;50.876;4.736;2022-11-20T04:08:32;3.50;99.90
8820;DHT22;4446;50.876;4.736;2022-11-20T04:11:09;3.50;99.90
8820;DHT22;4446;50.876;4.736;2022-11-20T04:13:36;3.50;99.90
8820;DHT22;4446;50.876;4.736;2022-11-20T04:16:04;3.50;99.90
8820;DHT22;4446;50.876;4.736;2022-11-20T04:18:33;3.50;99.90
8820;DHT22;4446;50.876;4.736;2022-11-20T04:21:00;3.40;99.90
8820;DHT22;4446;50.876;4.736;2022-11-20T04:23:27;3.50;99.90
8820;DHT22;4446;50.876;4.736;2022-11-20T04:25:55;3.50;99.90
8820;DHT22;4446;50.876;4.736;2022-11-20T04:28:26;3.50;99.90
8820;DHT22;4446;50.876;4.736;2022-11-20T04:30:53;3.50;99.90
8820;DHT22;4446;50.876;4.736;2022-11-20T04:33:20;3.50;99.90
8820;DHT22;4446;50.876;4.736;2022-11-20T04:35:49;3.50;99.90
8820;DHT22;4446;50.876;4.736;2022-11-20T04:38:16;3.50;99.90
8820;DHT22;4446;50.876;4.736;2022-11-20T04:40:43;3.50;99.90
8820;DHT22;4446;50.876;4.736;2022-11-20T04:43:10;3.50;99.90
8820;DHT22;4446;50.876;4.736;2022-11-20T04:45:37;3.50;99.90
8820;DHT22;4446;50.876;4.736;2022-11-20T04:48:04;3.50;99.90
8820;DHT22;4446;50.876;4.736;2022-11-20T04:50:31;3.50;99.90
8820;DHT22;4446;50.876;4.736;2022-11-20T04:53:00;3.40;99.90
8820;DHT22;4446;50.876;4.736;2022-11-20T04:55:27;3.40;99.90
8820;DHT22;4446;50.876;4.736;2022-11-20T04:57:54;3.40;99.90
8820;DHT22;4446;50.876;4.736;2022-11-20T05:00:21;3.30;99.90
8820;DHT22;4446;50.876;4.736;2022-11-20T05:02:48;3.30;99.90
8820;DHT22;4446;50.876;4.736;2022-11-20T05:05:15;3.10;99.90
8820;DHT22;4446;50.876;4.736;2022-11-20T05:07:42;3.10;99.90
8820;DHT22;4446;50.876;4.736;2022-11-20T05:10:11;3.00;99.90
8820;DHT22;4446;50.876;4.736;2022-11-20T05:12:38;3.00;99.90
8820;DHT22;4446;50.876;4.736;2022-11-20T05:15:05;3.00;99.90
8820;DHT22;4446;50.876;4.736;2022-11-20T05:17:32;3.00;99.90
8820;DHT22;4446;50.876;4.736;2022-11-20T05:19:59;3.10;99.90
8820;DHT22;4446;50.876;4.736;2022-11-20T05:22:26;3.10;99.90
8820;DHT22;4446;50.876;4.736;2022-11-20T05:24:53;3.10;99.90
8820;DHT22;4446;50.876;4.736;2022-11-20T05:27:21;3.20;99.90
8820;DHT22;4446;50.876;4.736;2022-11-20T05:29:48;3.20;99.90
8820;DHT22;4446;50.876;4.736;2022-11-20T05:32:15;3.30;99.90
8820;DHT22;4446;50.876;4.736;2022-11-20T05:34:42;3.30;99.90
8820;DHT22;4446;50.876;4.736;2022-11-20T05:37:09;3.30;99.90
8820;DHT22;4446;50.876;4.736;2022-11-20T05:39:36;3.40;99.90
8820;DHT22;4446;50.876;4.736;2022-11-20T05:42:03;3.40;99.90
8820;DHT22;4446;50.876;4.736;2022-11-20T05:44:49;3.40;99.90
8820;DHT22;4446;50.876;4.736;2022-11-20T05:47:16;3.40;99.90
8820;DHT22;4446;50.876;4.736;2022-11-20T05:49:43;3.40;99.90
8820;DHT22;4446;50.876;4.736;2022-11-20T05:52:10;3.40;99.90
8820;DHT22;4446;50.876;4.736;2022-11-20T05:54:37;3.50;99.90
8820;DHT22;4446;50.876;4.736;2022-11-20T05:57:04;3.50;99.90
8820;DHT22;4446;50.876;4.736;2022-11-20T05:59:31;3.50;99.90
8820;DHT22;4446;50.876;4.736;2022-11-20T06:01:59;3.50;99.90
8820;DHT22;4446;50.876;4.736;2022-11-20T06:04:26;3.50;99.90
8820;DHT22;4446;50.876;4.736;2022-11-20T06:06:53;3.50;99.90
8820;DHT22;4446;50.876;4.736;2022-11-20T06:09:20;3.40;99.90
8820;DHT22;4446;50.876;4.736;2022-11-20T06:11:47;3.40;99.90
8820;DHT22;4446;50.876;4.736;2022-11-20T06:14:15;3.40;99.90
8820;DHT22;4446;50.876;4.736;2022-11-20T06:16:42;3.30;99.90
8820;DHT22;4446;50.876;4.736;2022-11-20T06:19:10;3.30;99.90
8820;DHT22;4446;50.876;4.736;2022-11-20T06:21:37;3.30;99.90
8820;DHT22;4446;50.876;4.736;2022-11-20T06:24:05;3.30;99.90
8820;DHT22;4446;50.876;4.736;2022-11-20T06:26:32;3.40;99.90
8820;DHT22;4446;50.876;4.736;2022-11-20T06:28:59;3.40;99.90
8820;DHT22;4446;50.876;4.736;2022-11-20T06:31:26;3.40;99.90
8820;DHT22;4446;50.876;4.736;2022-11-20T06:33:54;3.50;99.90
8820;DHT22;4446;50.876;4.736;2022-11-20T06:36:23;3.50;99.90
8820;DHT22;4446;50.876;4.736;2022-11-20T06:38:50;3.50;99.90
8820;DHT22;4446;50.876;4.736;2022-11-20T06:41:19;3.50;99.90
8820;DHT22;4446;50.876;4.736;2022-11-20T06:43:46;3.60;99.90
8820;DHT22;4446;50.876;4.736;2022-11-20T06:46:15;3.50;99.90
8820;DHT22;4446;50.876;4.736;2022-11-20T06:48:43;3.50;99.90
8820;DHT22;4446;50.876;4.736;2022-11-20T06:51:12;3.50;99.90
8820;DHT22;4446;50.876;4.736;2022-11-20T06:53:40;3.50;99.90
8820;DHT22;4446;50.876;4.736;2022-11-20T06:56:08;3.50;99.90
8820;DHT22;4446;50.876;4.736;2022-11-20T06:58:36;3.50;99.90
8820;DHT22;4446;50.876;4.736;2022-11-20T07:01:05;3.60;99.90
8820;DHT22;4446;50.876;4.736;2022-11-20T07:03:33;3.60;99.90
8820;DHT22;4446;50.876;4.736;2022-11-20T07:06:00;3.60;99.90
8820;DHT22;4446;50.876;4.736;2022-11-20T07:08:28;3.60;99.90
8820;DHT22;4446;50.876;4.736;2022-11-20T07:10:59;3.70;99.90
8820;DHT22;4446;50.876;4.736;2022-11-20T07:13:26;3.70;99.90
8820;DHT22;4446;50.876;4.736;2022-11-20T07:15:54;3.70;99.90
8820;DHT22;4446;50.876;4.736;2022-11-20T07:18:21;3.70;99.90
8820;DHT22;4446;50.876;4.736;2022-11-20T07:20:48;3.80;99.90
8820;DHT22;4446;50.876;4.736;2022-11-20T07:23:15;3.80;99.90
8820;DHT22;4446;50.876;4.736;2022-11-20T07:25:42;3.80;99.90
8820;DHT22;4446;50.876;4.736;2022-11-20T07:28:11;3.80;99.90
8820;DHT22;4446;50.876;4.736;2022-11-20T07:30:38;3.80;99.90
8820;DHT22;4446;50.876;4.736;2022-11-20T07:33:05;3.90;99.90
8820;DHT22;4446;50.876;4.736;2022-11-20T07:35:32;3.90;99.90
8820;DHT22;4446;50.876;4.736;2022-11-20T07:37:59;3.90;99.90
8820;DHT22;4446;50.876;4.736;2022-11-20T07:40:26;4.00;99.90
8820;DHT22;4446;50.876;4.736;2022-11-20T07:42:55;4.00;99.90
8820;DHT22;4446;50.876;4.736;2022-11-20T07:45:24;4.00;99.90
8820;DHT22;4446;50.876;4.736;2022-11-20T07:47:51;4.10;99.90
8820;DHT22;4446;50.876;4.736;2022-11-20T07:50:19;4.10;99.90
8820;DHT22;4446;50.876;4.736;2022-11-20T07:52:46;4.20;99.90
8820;DHT22;4446;50.876;4.736;2022-11-20T07:55:14;4.30;99.90
8820;DHT22;4446;50.876;4.736;2022-11-20T07:57:41;4.30;99.90
8820;DHT22;4446;50.876;4.736;2022-11-20T08:00:10;4.30;99.90
8820;DHT22;4446;50.876;4.736;2022-11-20T08:02:40;4.30;99.90
8820;DHT22;4446;50.876;4.736;2022-11-20T08:05:09;4.30;99.90
8820;DHT22;4446;50.876;4.736;2022-11-20T08:07:37;4.40;99.90
8820;DHT22;4446;50.876;4.736;2022-11-20T08:10:05;4.40;99.90
8820;DHT22;4446;50.876;4.736;2022-11-20T08:12:34;4.50;99.90
8820;DHT22;4446;50.876;4.736;2022-11-20T08:15:18;4.60;99.90
8820;DHT22;4446;50.876;4.736;2022-11-20T08:17:47;4.70;99.90
8820;DHT22;4446;50.876;4.736;2022-11-20T08:20:14;4.70;99.90
8820;DHT22;4446;50.876;4.736;2022-11-20T08:22:41;4.80;99.90
8820;DHT22;4446;50.876;4.736;2022-11-20T08:25:08;4.90;99.90
8820;DHT22;4446;50.876;4.736;2022-11-20T08:27:35;4.90;99.90
8820;DHT22;4446;50.876;4.736;2022-11-20T08:30:03;5.00;99.90
8820;DHT22;4446;50.876;4.736;2022-11-20T08:32:30;5.00;99.90
8820;DHT22;4446;50.876;4.736;2022-11-20T08:34:58;5.10;99.90
8820;DHT22;4446;50.876;4.736;2022-11-20T08:37:25;5.10;99.90
8820;DHT22;4446;50.876;4.736;2022-11-20T08:39:52;5.10;99.90
8820;DHT22;4446;50.876;4.736;2022-11-20T08:42:22;5.20;99.90
8820;DHT22;4446;50.876;4.736;2022-11-20T08:44:49;5.20;99.90
8820;DHT22;4446;50.876;4.736;2022-11-20T08:47:16;5.30;99.90
8820;DHT22;4446;50.876;4.736;2022-11-20T08:49:43;5.40;99.90
8820;DHT22;4446;50.876;4.736;2022-11-20T08:52:15;5.50;99.90
8820;DHT22;4446;50.876;4.736;2022-11-20T08:54:42;5.60;99.90
8820;DHT22;4446;50.876;4.736;2022-11-20T08:57:09;5.60;99.90
8820;DHT22;4446;50.876;4.736;2022-11-20T08:59:36;5.60;99.90
8820;DHT22;4446;50.876;4.736;2022-11-20T09:02:03;5.60;99.90
8820;DHT22;4446;50.876;4.736;2022-11-20T09:04:30;5.60;99.90
8820;DHT22;4446;50.876;4.736;2022-11-20T09:06:57;5.70;99.90
8820;DHT22;4446;50.876;4.736;2022-11-20T09:09:28;5.70;99.90
8820;DHT22;4446;50.876;4.736;2022-11-20T09:11:54;5.80;99.90
8820;DHT22;4446;50.876;4.736;2022-11-20T09:14:22;5.90;99.90
8820;DHT22;4446;50.876;4.736;2022-11-20T09:16:50;5.90;99.90
8820;DHT22;4446;50.876;4.736;2022-11-20T09:19:17;6.00;99.90
8820;DHT22;4446;50.876;4.736;2022-11-20T09:21:44;6.00;99.90
8820;DHT22;4446;50.876;4.736;2022-11-20T09:24:11;6.00;99.90
8820;DHT22;4446;50.876;4.736;2022-11-20T09:26:39;6.10;99.90
8820;DHT22;4446;50.876;4.736;2022-11-20T09:29:07;6.10;99.90
8820;DHT22;4446;50.876;4.736;2022-11-20T09:31:34;6.20;99.90
8820;DHT22;4446;50.876;4.736;2022-11-20T09:34:01;6.30;99.90
8820;DHT22;4446;50.876;4.736;2022-11-20T09:36:28;6.30;99.90
8820;DHT22;4446;50.876;4.736;2022-11-20T09:38:55;6.30;99.90
8820;DHT22;4446;50.876;4.736;2022-11-20T09:41:36;6.50;99.90
8820;DHT22;4446;50.876;4.736;2022-11-20T09:48:08;6.70;99.90
8820;DHT22;4446;50.876;4.736;2022-11-20T09:50:44;6.80;99.90
8820;DHT22;4446;50.876;4.736;2022-11-20T09:53:23;6.90;99.90
8820;DHT22;4446;50.876;4.736;2022-11-20T09:55:52;6.90;99.90
8820;DHT22;4446;50.876;4.736;2022-11-20T09:58:25;7.00;99.90
8820;DHT22;4446;50.876;4.736;2022-11-20T10:00:56;7.00;99.90
8820;DHT22;4446;50.876;4.736;2022-11-20T10:03:36;7.10;99.90
8820;DHT22;4446;50.876;4.736;2022-11-20T10:06:07;7.10;99.90
8820;DHT22;4446;50.876;4.736;2022-11-20T10:08:41;7.10;99.90
8820;DHT22;4446;50.876;4.736;2022-11-20T10:11:17;7.20;99.90
8820;DHT22;4446;50.876;4.736;2022-11-20T10:13:49;7.20;99.90
8820;DHT22;4446;50.876;4.736;2022-11-20T10:16:29;7.30;99.90
8820;DHT22;4446;50.876;4.736;2022-11-20T10:19:08;7.30;99.90
8820;DHT22;4446;50.876;4.736;2022-11-20T10:21:48;7.40;99.90
8820;DHT22;4446;50.876;4.736;2022-11-20T10:24:48;7.40;99.90
8820;DHT22;4446;50.876;4.736;2022-11-20T10:27:50;7.40;99.90
8820;DHT22;4446;50.876;4.736;2022-11-20T10:30:21;7.50;99.90
8820;DHT22;4446;50.876;4.736;2022-11-20T10:32:58;7.50;99.90
8820;DHT22;4446;50.876;4.736;2022-11-20T10:35:33;7.50;99.90
8820;DHT22;4446;50.876;4.736;2022-11-20T10:38:05;7.50;99.90
8820;DHT22;4446;50.876;4.736;2022-11-20T10:40:37;7.60;99.90
8820;DHT22;4446;50.876;4.736;2022-11-20T10:43:09;7.60;99.90
8820;DHT22;4446;50.876;4.736;2022-11-20T10:45:47;7.80;99.90
8820;DHT22;4446;50.876;4.736;2022-11-20T10:48:20;7.90;99.90
8820;DHT22;4446;50.876;4.736;2022-11-20T10:51:15;7.90;99.90
8820;DHT22;4446;50.876;4.736;2022-11-20T10:53:55;7.90;99.90
8820;DHT22;4446;50.876;4.736;2022-11-20T10:56:28;8.00;99.90
8820;DHT22;4446;50.876;4.736;2022-11-20T11:01:52;8.20;99.90
8820;DHT22;4446;50.876;4.736;2022-11-20T11:04:30;8.30;99.90
8820;DHT22;4446;50.876;4.736;2022-11-20T11:07:08;8.40;99.90
8820;DHT22;4446;50.876;4.736;2022-11-20T11:09:41;8.60;99.90
8820;DHT22;4446;50.876;4.736;2022-11-20T11:12:10;8.60;99.90
8820;DHT22;4446;50.876;4.736;2022-11-20T11:14:48;8.70;99.90
8820;DHT22;4446;50.876;4.736;2022-11-20T11:17:27;8.80;99.90
8820;DHT22;4446;50.876;4.736;2022-11-20T11:19:59;8.80;99.90
8820;DHT22;4446;50.876;4.736;2022-11-20T11:22:29;8.80;99.90
8820;DHT22;4446;50.876;4.736;2022-11-20T11:24:56;8.80;99.90
8820;DHT22;4446;50.876;4.736;2022-11-20T11:27:23;8.80;99.90
8820;DHT22;4446;50.876;4.736;2022-11-20T11:30:02;8.90;99.90
8820;DHT22;4446;50.876;4.736;2022-11-20T11:32:30;8.90;99.90
8820;DHT22;4446;50.876;4.736;2022-11-20T11:35:01;8.80;99.90
8820;DHT22;4446;50.876;4.736;2022-11-20T11:37:34;8.90;99.90
8820;DHT22;4446;50.876;4.736;2022-11-20T11:40:03;8.90;99.90
8820;DHT22;4446;50.876;4.736;2022-11-20T11:42:31;8.90;99.90
8820;DHT22;4446;50.876;4.736;2022-11-20T11:44:59;8.80;99.90
8820;DHT22;4446;50.876;4.736;2022-11-20T11:47:33;8.90;99.90
8820;DHT22;4446;50.876;4.736;2022-11-20T11:50:16;8.90;99.90
8820;DHT22;4446;50.876;4.736;2022-11-20T11:52:49;8.90;99.90
8820;DHT22;4446;50.876;4.736;2022-11-20T11:55:28;8.80;99.90
8820;DHT22;4446;50.876;4.736;2022-11-20T11:58:06;8.90;99.90
8820;DHT22;4446;50.876;4.736;2022-11-20T12:00:37;8.90;99.90
8820;DHT22;4446;50.876;4.736;2022-11-20T12:03:12;8.90;99.90
8820;DHT22;4446;50.876;4.736;2022-11-20T12:05:43;9.00;99.90
8820;DHT22;4446;50.876;4.736;2022-11-20T12:08:18;9.00;99.90
8820;DHT22;4446;50.876;4.736;2022-11-20T12:10:51;9.10;99.90
8820;DHT22;4446;50.876;4.736;2022-11-20T12:13:42;9.10;99.90
8820;DHT22;4446;50.876;4.736;2022-11-20T12:16:13;9.10;99.90
8820;DHT22;4446;50.876;4.736;2022-11-20T12:18:41;9.00;99.90
8820;DHT22;4446;50.876;4.736;2022-11-20T12:21:20;8.90;99.90
8820;DHT22;4446;50.876;4.736;2022-11-20T12:24:10;8.90;99.90
8820;DHT22;4446;50.876;4.736;2022-11-20T12:26:52;8.80;99.90
8820;DHT22;4446;50.876;4.736;2022-11-20T12:29:32;8.60;99.90
8820;DHT22;4446;50.876;4.736;2022-11-20T12:32:28;8.40;99.90
8820;DHT22;4446;50.876;4.736;2022-11-20T12:35:05;8.30;99.90
8820;DHT22;4446;50.876;4.736;2022-11-20T12:37:45;8.20;99.90
8820;DHT22;4446;50.876;4.736;2022-11-20T12:40:27;8.20;99.90
8820;DHT22;4446;50.876;4.736;2022-11-20T12:43:09;8.10;99.90
8820;DHT22;4446;50.876;4.736;2022-11-20T12:46:08;8.00;99.90
8820;DHT22;4446;50.876;4.736;2022-11-20T12:48:54;7.90;99.90
8820;DHT22;4446;50.876;4.736;2022-11-20T12:51:38;7.90;99.90
8820;DHT22;4446;50.876;4.736;2022-11-20T12:54:30;7.90;99.90
8820;DHT22;4446;50.876;4.736;2022-11-20T12:57:09;7.80;99.90
8820;DHT22;4446;50.876;4.736;2022-11-20T12:59:55;7.80;99.90
8820;DHT22;4446;50.876;4.736;2022-11-20T13:02:27;7.60;99.90
8820;DHT22;4446;50.876;4.736;2022-11-20T13:07:46;7.60;99.90
8820;DHT22;4446;50.876;4.736;2022-11-20T13:10:25;7.70;99.90
8820;DHT22;4446;50.876;4.736;2022-11-20T13:12:58;7.70;99.90
8820;DHT22;4446;50.876;4.736;2022-11-20T13:15:39;7.70;99.90
8820;DHT22;4446;50.876;4.736;2022-11-20T13:18:11;7.70;99.90
8820;DHT22;4446;50.876;4.736;2022-11-20T13:20:42;7.70;99.90
8820;DHT22;4446;50.876;4.736;2022-11-20T13:23:23;7.70;99.90
8820;DHT22;4446;50.876;4.736;2022-11-20T13:26:02;7.70;99.90
8820;DHT22;4446;50.876;4.736;2022-11-20T13:28:30;7.70;99.90
8820;DHT22;4446;50.876;4.736;2022-11-20T13:30:58;7.70;99.90
8820;DHT22;4446;50.876;4.736;2022-11-20T13:33:30;7.80;99.90
8820;DHT22;4446;50.876;4.736;2022-11-20T13:36:00;7.80;99.90
8820;DHT22;4446;50.876;4.736;2022-11-20T13:38:28;7.80;99.90
8820;DHT22;4446;50.876;4.736;2022-11-20T13:41:08;7.90;99.90
8820;DHT22;4446;50.876;4.736;2022-11-20T13:43:52;7.80;99.90
8820;DHT22;4446;50.876;4.736;2022-11-20T13:46:20;7.90;99.90
8820;DHT22;4446;50.876;4.736;2022-11-20T13:48:51;7.80;99.90
8820;DHT22;4446;50.876;4.736;2022-11-20T13:51:31;7.70;99.90
8820;DHT22;4446;50.876;4.736;2022-11-20T13:54:19;7.70;99.90
8820;DHT22;4446;50.876;4.736;2022-11-20T13:56:56;7.70;99.90
8820;DHT22;4446;50.876;4.736;2022-11-20T13:59:47;7.60;99.90
8820;DHT22;4446;50.876;4.736;2022-11-20T14:02:19;7.60;99.90
8820;DHT22;4446;50.876;4.736;2022-11-20T14:04:49;7.70;99.90
8820;DHT22;4446;50.876;4.736;2022-11-20T14:07:18;7.80;99.90
8820;DHT22;4446;50.876;4.736;2022-11-20T14:09:53;7.80;99.90
8820;DHT22;4446;50.876;4.736;2022-11-20T14:12:23;7.80;99.90
8820;DHT22;4446;50.876;4.736;2022-11-20T14:14:53;7.80;99.90
8820;DHT22;4446;50.876;4.736;2022-11-20T14:17:23;7.70;99.90
8820;DHT22;4446;50.876;4.736;2022-11-20T14:19:52;7.70;99.90
8820;DHT22;4446;50.876;4.736;2022-11-20T14:22:21;7.70;99.90
8820;DHT22;4446;50.876;4.736;2022-11-20T14:25:00;7.70;99.90
8820;DHT22;4446;50.876;4.736;2022-11-20T14:27:34;7.70;99.90
8820;DHT22;4446;50.876;4.736;2022-11-20T14:30:04;7.70;99.90
8820;DHT22;4446;50.876;4.736;2022-11-20T14:32:35;7.70;99.90
8820;DHT22;4446;50.876;4.736;2022-11-20T14:35:08;7.80;99.90
8820;DHT22;4446;50.876;4.736;2022-11-20T14:37:37;7.70;99.90
8820;DHT22;4446;50.876;4.736;2022-11-20T14:40:22;7.70;99.90
8820;DHT22;4446;50.876;4.736;2022-11-20T14:42:50;7.80;99.90
8820;DHT22;4446;50.876;4.736;2022-11-20T14:45:19;7.70;99.90
8820;DHT22;4446;50.876;4.736;2022-11-20T14:47:47;7.70;99.90
8820;DHT22;4446;50.876;4.736;2022-11-20T14:50:23;7.60;99.90
8820;DHT22;4446;50.876;4.736;2022-11-20T14:52:51;7.70;99.90
8820;DHT22;4446;50.876;4.736;2022-11-20T14:55:30;7.70;99.90
8820;DHT22;4446;50.876;4.736;2022-11-20T14:57:59;7.80;99.90
8820;DHT22;4446;50.876;4.736;2022-11-20T15:00:29;7.80;99.90
8820;DHT22;4446;50.876;4.736;2022-11-20T15:02:56;7.80;99.90
8820;DHT22;4446;50.876;4.736;2022-11-20T15:05:25;7.80;99.90
8820;DHT22;4446;50.876;4.736;2022-11-20T15:08:05;7.80;99.90
8820;DHT22;4446;50.876;4.736;2022-11-20T15:10:32;7.80;99.90
8820;DHT22;4446;50.876;4.736;2022-11-20T15:13:02;7.80;99.90
8820;DHT22;4446;50.876;4.736;2022-11-20T15:15:33;7.80;99.90
8820;DHT22;4446;50.876;4.736;2022-11-20T15:18:02;7.80;99.90
8820;DHT22;4446;50.876;4.736;2022-11-20T15:20:31;7.70;99.90
8820;DHT22;4446;50.876;4.736;2022-11-20T15:22:59;7.80;99.90
8820;DHT22;4446;50.876;4.736;2022-11-20T15:25:26;7.80;99.90
8820;DHT22;4446;50.876;4.736;2022-11-20T15:27:55;7.70;99.90
8820;DHT22;4446;50.876;4.736;2022-11-20T15:30:23;7.80;99.90
8820;DHT22;4446;50.876;4.736;2022-11-20T15:32:52;7.80;99.90
8820;DHT22;4446;50.876;4.736;2022-11-20T15:35:19;7.90;99.90
8820;DHT22;4446;50.876;4.736;2022-11-20T15:37:46;7.80;99.90
8820;DHT22;4446;50.876;4.736;2022-11-20T15:40:13;7.80;99.90
8820;DHT22;4446;50.876;4.736;2022-11-20T15:42:40;7.90;99.90
8820;DHT22;4446;50.876;4.736;2022-11-20T15:45:29;7.90;99.90
8820;DHT22;4446;50.876;4.736;2022-11-20T15:47:59;8.00;99.90
8820;DHT22;4446;50.876;4.736;2022-11-20T15:50:30;7.90;99.90
8820;DHT22;4446;50.876;4.736;2022-11-20T15:53:00;8.00;99.90
8820;DHT22;4446;50.876;4.736;2022-11-20T15:55:27;8.00;99.90
8820;DHT22;4446;50.876;4.736;2022-11-20T15:57:54;8.00;99.90
8820;DHT22;4446;50.876;4.736;2022-11-20T16:00:21;8.00;99.90
8820;DHT22;4446;50.876;4.736;2022-11-20T16:02:48;8.10;99.90
8820;DHT22;4446;50.876;4.736;2022-11-20T16:05:17;8.10;99.90
8820;DHT22;4446;50.876;4.736;2022-11-20T16:07:44;8.10;99.90
8820;DHT22;4446;50.876;4.736;2022-11-20T16:10:11;8.10;99.90
8820;DHT22;4446;50.876;4.736;2022-11-20T16:12:38;8.10;99.90
8820;DHT22;4446;50.876;4.736;2022-11-20T16:15:23;8.00;99.90
8820;DHT22;4446;50.876;4.736;2022-11-20T16:18:09;8.00;99.90
8820;DHT22;4446;50.876;4.736;2022-11-20T16:20:38;8.00;99.90
8820;DHT22;4446;50.876;4.736;2022-11-20T16:23:06;8.00;99.90
8820;DHT22;4446;50.876;4.736;2022-11-20T16:25:33;7.90;99.90
8820;DHT22;4446;50.876;4.736;2022-11-20T16:28:00;7.90;99.90
8820;DHT22;4446;50.876;4.736;2022-11-20T16:30:27;7.90;99.90
8820;DHT22;4446;50.876;4.736;2022-11-20T16:32:54;7.90;99.90
8820;DHT22;4446;50.876;4.736;2022-11-20T16:35:21;7.90;99.90
8820;DHT22;4446;50.876;4.736;2022-11-20T16:37:50;7.90;99.90
8820;DHT22;4446;50.876;4.736;2022-11-20T16:40:17;7.90;99.90
8820;DHT22;4446;50.876;4.736;2022-11-20T16:42:44;7.90;99.90
8820;DHT22;4446;50.876;4.736;2022-11-20T16:45:11;7.90;99.90
8820;DHT22;4446;50.876;4.736;2022-11-20T16:47:38;7.80;99.90
8820;DHT22;4446;50.876;4.736;2022-11-20T16:50:06;7.90;99.90